Main page
METAR-TAF:

METAR-TAF

Airports :

Leeds Bradford Airport

Leeds, England

latitude: 53-52N, longitude: 001-39W, elevation: 208 m

Current weather observation

The report was made 36 minutes ago, at 22:50 UTC
Wind 10 kt from the West/Northwest
Temperature 13°C
Humidity 100%
Pressure 1005 hPa
Visibility 10 km or more
Few clouds at a height of 2000 ft

METAR: EGNM 302250Z 29010KT 9999 FEW020 13/13 Q1005

Time: 00:26 (23:26 UTC)

Forecast

The report was made 2 hours and 51 minutes ago, at 20:35 UTC
Forecast valid from 30 at 20 UTC to 31 at 18 UTC
Wind 9 kt from the West/Northwest
Visibility 10 km or more
Scattered clouds at a height of 1200 ft
Temporary
from 30 at 20 UTC to 30 at 23 UTC
Visibility: 3000 m
Broken clouds at a height of 400 ft
rain, drizzle, mist
Probability 30% :
Temporary
from 31 at 12 UTC to 31 at 18 UTC
Visibility: 7000 m
rain showers

TAF: EGNM 302035Z 3020/3118 29009KT 9999 SCT012 TEMPO 3020/3023 3000 RADZ BR BKN004 PROB30 TEMPO 3112/3118 7000 SHRA

Weather observations and forecasts of more than 4000 airports (METAR and TAF reports).

The available stations are represented by yellow and red dots on the map.

Hover mouse over dot to see the name of the station.

Then click to see weather observations and forecasts.

To change the map : click on the green buttons with a black cross to zoom in, on the green button with a dash to zoom out, or on the green arrows for adjacent maps.


METAR-TAF: